الصفحة الرئيسية
METAR-TAF:

METAR-TAF

مطار :

أوسترافا, التشيك

دائرة عرض: 49-41N, خط طول: 018-07E, ارتفاع: 256 متر

مراقبة الطقس الحالي

تاريخ ووقت الإصدار 40 دقيقة قبل الساعة 13:00UTC
ريح 8 عقدة من الشمال
درجة الحرارة 26°درجة مئوية
الرطوبة 51%
ضغط 1012 hPa
الرؤية 10 كم أو أكثر
الغيوم لا تقل 1500 م ولا وجود لمزنة ركامية السحاب الأسود

METAR: LKMT 201300Z 01008KT CAVOK 26/15 Q1012 NOSIG

زمن: 15:40 (13:40 UTC)

توقعات

تاريخ ووقت الإصدار 2ساعات و 40 دقيقة قبل الساعة 11:00UTC
التوقعات صالحة من20 الساعة 12 UTC إلى 21 الساعة 12 UTC
ريح 8 عقدة من الشمال/الشمال الشرقي
الرؤية 10 كم أو أكثر
الغيوم لا تقل 1500 م ولا وجود لمزنة ركامية السحاب الأسود
أصبح
من 20 الساعة 18 UTC إلى 20 الساعة 20 UTC
ريح 2 عقدةمن اتجاهات متغيرة
أصبح
من 21 الساعة 06 UTC إلى 21 الساعة 08 UTC
ريح 8 عقدة من الشمال/الشمال الشرقي

TAF: LKMT 201100Z 2012/2112 02008KT CAVOK BECMG 2018/2020 VRB02KT BECMG 2106/2108 02008KT

أرصاد الطقس والتوقعات من أكثر من 4000 مطار (تقارير الطقس للمطار METAR والتنبؤ بالطقس بالمطارTAF).

المحطات المتاحة هي النقط الصفراء والحمراء على الخريطة.

حرك المؤشر فوق النقطة لمعرفة اسم المحطة.

ثم انقر لمعرفة أرصاد وتوقعات الطقس.

لتغيير الخارطة: اضغط على الأزرار الخضراء مع رمز الصليب الأسود للتكبير. على الزر الأخضر مع شرطة للتصغير، أو على الأسهم الخضراء للخرائط المجاورة.


METAR-TAF: